sensor_id;sensor_type;location;lat;lon;timestamp;P1;durP1;ratioP1;P2;durP2;ratioP2
19869;SDS011;10097;50.862;4.696;2023-05-29T00:00:08;12.80;;;4.75;;
19869;SDS011;10097;50.862;4.696;2023-05-29T00:02:34;16.92;;;4.72;;
19869;SDS011;10097;50.862;4.696;2023-05-29T00:05:00;14.45;;;4.85;;
19869;SDS011;10097;50.862;4.696;2023-05-29T00:07:29;11.95;;;4.53;;
19869;SDS011;10097;50.862;4.696;2023-05-29T00:09:55;11.50;;;4.47;;
19869;SDS011;10097;50.862;4.696;2023-05-29T00:12:21;16.33;;;5.30;;
19869;SDS011;10097;50.862;4.696;2023-05-29T00:14:48;13.57;;;4.93;;
19869;SDS011;10097;50.862;4.696;2023-05-29T00:17:14;11.68;;;4.65;;
19869;SDS011;10097;50.862;4.696;2023-05-29T00:19:40;15.02;;;6.20;;
19869;SDS011;10097;50.862;4.696;2023-05-29T00:22:07;12.73;;;4.93;;
19869;SDS011;10097;50.862;4.696;2023-05-29T00:24:33;14.88;;;5.15;;
19869;SDS011;10097;50.862;4.696;2023-05-29T00:26:59;15.38;;;5.35;;
19869;SDS011;10097;50.862;4.696;2023-05-29T00:29:26;19.50;;;4.90;;
19869;SDS011;10097;50.862;4.696;2023-05-29T00:31:52;14.45;;;5.07;;
19869;SDS011;10097;50.862;4.696;2023-05-29T00:34:18;12.45;;;5.43;;
19869;SDS011;10097;50.862;4.696;2023-05-29T00:36:45;16.15;;;5.38;;
19869;SDS011;10097;50.862;4.696;2023-05-29T00:39:11;12.88;;;4.88;;
19869;SDS011;10097;50.862;4.696;2023-05-29T00:41:37;11.70;;;5.20;;
19869;SDS011;10097;50.862;4.696;2023-05-29T00:44:03;12.77;;;5.13;;
19869;SDS011;10097;50.862;4.696;2023-05-29T00:46:29;15.00;;;5.53;;
19869;SDS011;10097;50.862;4.696;2023-05-29T00:48:57;14.57;;;6.00;;
19869;SDS011;10097;50.862;4.696;2023-05-29T00:51:23;14.80;;;5.43;;
19869;SDS011;10097;50.862;4.696;2023-05-29T00:53:51;14.20;;;5.70;;
19869;SDS011;10097;50.862;4.696;2023-05-29T00:56:18;14.90;;;5.63;;
19869;SDS011;10097;50.862;4.696;2023-05-29T00:58:46;16.53;;;6.20;;
19869;SDS011;10097;50.862;4.696;2023-05-29T01:01:14;15.13;;;6.80;;
19869;SDS011;10097;50.862;4.696;2023-05-29T01:03:42;16.53;;;6.47;;
19869;SDS011;10097;50.862;4.696;2023-05-29T01:06:08;15.13;;;6.30;;
19869;SDS011;10097;50.862;4.696;2023-05-29T01:08:35;18.00;;;5.83;;
19869;SDS011;10097;50.862;4.696;2023-05-29T01:11:05;17.40;;;6.43;;
19869;SDS011;10097;50.862;4.696;2023-05-29T01:13:51;16.63;;;6.33;;
19869;SDS011;10097;50.862;4.696;2023-05-29T01:16:30;13.83;;;5.70;;
19869;SDS011;10097;50.862;4.696;2023-05-29T01:25:04;13.53;;;6.50;;
19869;SDS011;10097;50.862;4.696;2023-05-29T01:27:42;16.70;;;6.80;;
19869;SDS011;10097;50.862;4.696;2023-05-29T01:30:10;19.73;;;6.33;;
19869;SDS011;10097;50.862;4.696;2023-05-29T01:32:38;19.73;;;7.10;;
19869;SDS011;10097;50.862;4.696;2023-05-29T01:35:04;14.67;;;6.40;;
19869;SDS011;10097;50.862;4.696;2023-05-29T01:37:30;15.70;;;5.97;;
19869;SDS011;10097;50.862;4.696;2023-05-29T01:39:56;17.07;;;6.77;;
19869;SDS011;10097;50.862;4.696;2023-05-29T01:42:22;15.13;;;6.27;;
19869;SDS011;10097;50.862;4.696;2023-05-29T01:44:48;18.43;;;6.40;;
19869;SDS011;10097;50.862;4.696;2023-05-29T01:47:14;18.10;;;7.30;;
19869;SDS011;10097;50.862;4.696;2023-05-29T01:49:40;16.40;;;6.80;;
19869;SDS011;10097;50.862;4.696;2023-05-29T01:52:09;16.07;;;6.37;;
19869;SDS011;10097;50.862;4.696;2023-05-29T01:54:35;17.20;;;7.17;;
19869;SDS011;10097;50.862;4.696;2023-05-29T01:57:01;17.13;;;6.50;;
19869;SDS011;10097;50.862;4.696;2023-05-29T01:59:27;17.53;;;7.17;;
19869;SDS011;10097;50.862;4.696;2023-05-29T02:01:55;14.90;;;7.10;;
19869;SDS011;10097;50.862;4.696;2023-05-29T02:04:20;17.27;;;7.23;;
19869;SDS011;10097;50.862;4.696;2023-05-29T02:06:46;20.63;;;7.20;;
19869;SDS011;10097;50.862;4.696;2023-05-29T02:09:11;18.70;;;6.57;;
19869;SDS011;10097;50.862;4.696;2023-05-29T02:11:37;18.83;;;7.10;;
19869;SDS011;10097;50.862;4.696;2023-05-29T02:14:03;17.50;;;7.13;;
19869;SDS011;10097;50.862;4.696;2023-05-29T02:16:29;14.83;;;6.27;;
19869;SDS011;10097;50.862;4.696;2023-05-29T02:18:58;19.50;;;6.33;;
19869;SDS011;10097;50.862;4.696;2023-05-29T02:21:24;15.80;;;6.50;;
19869;SDS011;10097;50.862;4.696;2023-05-29T02:23:50;17.60;;;6.73;;
19869;SDS011;10097;50.862;4.696;2023-05-29T02:26:15;17.07;;;6.37;;
19869;SDS011;10097;50.862;4.696;2023-05-29T02:28:41;20.50;;;6.33;;
19869;SDS011;10097;50.862;4.696;2023-05-29T02:31:07;16.93;;;6.57;;
19869;SDS011;10097;50.862;4.696;2023-05-29T02:33:32;19.23;;;7.30;;
19869;SDS011;10097;50.862;4.696;2023-05-29T02:35:58;16.43;;;6.57;;
19869;SDS011;10097;50.862;4.696;2023-05-29T02:38:23;15.93;;;6.27;;
19869;SDS011;10097;50.862;4.696;2023-05-29T02:40:49;15.17;;;6.50;;
19869;SDS011;10097;50.862;4.696;2023-05-29T02:43:15;19.97;;;6.30;;
19869;SDS011;10097;50.862;4.696;2023-05-29T02:45:40;15.43;;;5.73;;
19869;SDS011;10097;50.862;4.696;2023-05-29T02:48:06;20.07;;;6.70;;
19869;SDS011;10097;50.862;4.696;2023-05-29T02:50:32;16.33;;;5.50;;
19869;SDS011;10097;50.862;4.696;2023-05-29T02:52:58;16.30;;;6.10;;
19869;SDS011;10097;50.862;4.696;2023-05-29T02:55:23;18.13;;;6.03;;
19869;SDS011;10097;50.862;4.696;2023-05-29T02:57:49;20.63;;;6.13;;
19869;SDS011;10097;50.862;4.696;2023-05-29T03:00:18;19.10;;;5.80;;
19869;SDS011;10097;50.862;4.696;2023-05-29T03:02:43;15.83;;;5.37;;
19869;SDS011;10097;50.862;4.696;2023-05-29T03:05:09;19.03;;;5.50;;
19869;SDS011;10097;50.862;4.696;2023-05-29T03:07:35;13.90;;;5.10;;
19869;SDS011;10097;50.862;4.696;2023-05-29T03:10:01;16.87;;;4.77;;
19869;SDS011;10097;50.862;4.696;2023-05-29T03:12:28;19.43;;;5.30;;
19869;SDS011;10097;50.862;4.696;2023-05-29T03:14:54;15.73;;;4.67;;
19869;SDS011;10097;50.862;4.696;2023-05-29T03:17:21;17.07;;;5.47;;
19869;SDS011;10097;50.862;4.696;2023-05-29T03:19:47;18.43;;;4.93;;
19869;SDS011;10097;50.862;4.696;2023-05-29T03:22:12;14.10;;;4.33;;
19869;SDS011;10097;50.862;4.696;2023-05-29T03:24:38;16.37;;;4.17;;
19869;SDS011;10097;50.862;4.696;2023-05-29T03:27:03;18.43;;;4.23;;
19869;SDS011;10097;50.862;4.696;2023-05-29T03:29:31;22.47;;;4.87;;
19869;SDS011;10097;50.862;4.696;2023-05-29T03:31:57;21.70;;;4.40;;
19869;SDS011;10097;50.862;4.696;2023-05-29T03:34:23;18.10;;;4.43;;
19869;SDS011;10097;50.862;4.696;2023-05-29T03:36:48;15.60;;;4.07;;
19869;SDS011;10097;50.862;4.696;2023-05-29T03:39:14;15.50;;;4.13;;
19869;SDS011;10097;50.862;4.696;2023-05-29T03:41:40;19.60;;;4.13;;
19869;SDS011;10097;50.862;4.696;2023-05-29T03:44:06;15.57;;;3.53;;
19869;SDS011;10097;50.862;4.696;2023-05-29T03:46:32;18.70;;;4.80;;
19869;SDS011;10097;50.862;4.696;2023-05-29T03:48:57;16.67;;;3.73;;
19869;SDS011;10097;50.862;4.696;2023-05-29T03:51:23;13.30;;;3.40;;
19869;SDS011;10097;50.862;4.696;2023-05-29T03:53:49;15.47;;;3.70;;
19869;SDS011;10097;50.862;4.696;2023-05-29T03:56:15;17.03;;;4.70;;
19869;SDS011;10097;50.862;4.696;2023-05-29T03:58:41;14.97;;;3.67;;
19869;SDS011;10097;50.862;4.696;2023-05-29T04:01:06;17.00;;;3.80;;
19869;SDS011;10097;50.862;4.696;2023-05-29T04:03:33;18.07;;;3.97;;
19869;SDS011;10097;50.862;4.696;2023-05-29T04:05:59;15.93;;;4.03;;
19869;SDS011;10097;50.862;4.696;2023-05-29T04:08:24;13.23;;;3.30;;
19869;SDS011;10097;50.862;4.696;2023-05-29T04:10:50;17.20;;;3.73;;
19869;SDS011;10097;50.862;4.696;2023-05-29T04:13:18;16.30;;;3.40;;
19869;SDS011;10097;50.862;4.696;2023-05-29T04:15:45;14.93;;;3.80;;
19869;SDS011;10097;50.862;4.696;2023-05-29T04:18:10;17.63;;;4.00;;
19869;SDS011;10097;50.862;4.696;2023-05-29T04:20:36;13.47;;;3.37;;
19869;SDS011;10097;50.862;4.696;2023-05-29T04:23:02;14.90;;;3.03;;
19869;SDS011;10097;50.862;4.696;2023-05-29T04:25:28;16.07;;;3.10;;
19869;SDS011;10097;50.862;4.696;2023-05-29T04:27:53;13.97;;;3.27;;
19869;SDS011;10097;50.862;4.696;2023-05-29T04:30:19;12.80;;;3.20;;
19869;SDS011;10097;50.862;4.696;2023-05-29T04:32:45;17.47;;;3.40;;
19869;SDS011;10097;50.862;4.696;2023-05-29T04:35:11;14.10;;;2.90;;
19869;SDS011;10097;50.862;4.696;2023-05-29T04:37:38;17.53;;;3.40;;
19869;SDS011;10097;50.862;4.696;2023-05-29T04:40:05;17.03;;;3.10;;
19869;SDS011;10097;50.862;4.696;2023-05-29T04:42:37;17.43;;;3.00;;
19869;SDS011;10097;50.862;4.696;2023-05-29T04:45:04;19.53;;;3.77;;
19869;SDS011;10097;50.862;4.696;2023-05-29T04:47:31;15.67;;;2.93;;
19869;SDS011;10097;50.862;4.696;2023-05-29T04:50:01;19.30;;;3.77;;
19869;SDS011;10097;50.862;4.696;2023-05-29T04:52:27;18.00;;;2.97;;
19869;SDS011;10097;50.862;4.696;2023-05-29T04:54:53;15.03;;;3.70;;
19869;SDS011;10097;50.862;4.696;2023-05-29T04:57:19;15.50;;;3.23;;
19869;SDS011;10097;50.862;4.696;2023-05-29T04:59:45;16.03;;;2.87;;
19869;SDS011;10097;50.862;4.696;2023-05-29T05:02:11;11.50;;;3.13;;
19869;SDS011;10097;50.862;4.696;2023-05-29T05:04:36;14.43;;;2.90;;
19869;SDS011;10097;50.862;4.696;2023-05-29T05:07:02;18.53;;;3.10;;
19869;SDS011;10097;50.862;4.696;2023-05-29T05:09:29;21.83;;;3.00;;
19869;SDS011;10097;50.862;4.696;2023-05-29T05:11:55;17.83;;;3.13;;
19869;SDS011;10097;50.862;4.696;2023-05-29T05:14:21;17.73;;;2.87;;
19869;SDS011;10097;50.862;4.696;2023-05-29T05:16:47;14.73;;;3.50;;
19869;SDS011;10097;50.862;4.696;2023-05-29T05:19:13;14.93;;;3.23;;
19869;SDS011;10097;50.862;4.696;2023-05-29T05:21:38;19.47;;;3.43;;
19869;SDS011;10097;50.862;4.696;2023-05-29T05:24:04;12.63;;;2.90;;
19869;SDS011;10097;50.862;4.696;2023-05-29T05:26:30;10.50;;;3.00;;
19869;SDS011;10097;50.862;4.696;2023-05-29T05:28:56;16.60;;;3.33;;
19869;SDS011;10097;50.862;4.696;2023-05-29T05:31:22;13.27;;;3.13;;
19869;SDS011;10097;50.862;4.696;2023-05-29T05:33:50;16.03;;;3.60;;
19869;SDS011;10097;50.862;4.696;2023-05-29T05:36:15;19.27;;;3.20;;
19869;SDS011;10097;50.862;4.696;2023-05-29T05:38:41;17.77;;;3.23;;
19869;SDS011;10097;50.862;4.696;2023-05-29T05:41:07;18.47;;;3.43;;
19869;SDS011;10097;50.862;4.696;2023-05-29T05:43:32;18.27;;;3.03;;
19869;SDS011;10097;50.862;4.696;2023-05-29T05:45:58;17.13;;;4.00;;
19869;SDS011;10097;50.862;4.696;2023-05-29T05:48:24;14.27;;;3.03;;
19869;SDS011;10097;50.862;4.696;2023-05-29T05:50:49;17.67;;;3.63;;
19869;SDS011;10097;50.862;4.696;2023-05-29T05:53:15;18.43;;;3.07;;
19869;SDS011;10097;50.862;4.696;2023-05-29T05:55:42;13.97;;;3.40;;
19869;SDS011;10097;50.862;4.696;2023-05-29T05:58:08;14.90;;;3.17;;
19869;SDS011;10097;50.862;4.696;2023-05-29T06:00:33;19.70;;;3.73;;
19869;SDS011;10097;50.862;4.696;2023-05-29T06:02:59;19.00;;;3.27;;
19869;SDS011;10097;50.862;4.696;2023-05-29T06:05:25;14.97;;;3.00;;
19869;SDS011;10097;50.862;4.696;2023-05-29T06:07:51;14.77;;;2.97;;
19869;SDS011;10097;50.862;4.696;2023-05-29T06:10:17;15.40;;;3.20;;
19869;SDS011;10097;50.862;4.696;2023-05-29T06:12:42;14.20;;;3.03;;
19869;SDS011;10097;50.862;4.696;2023-05-29T06:15:08;18.50;;;3.17;;
19869;SDS011;10097;50.862;4.696;2023-05-29T06:17:34;16.43;;;2.87;;
19869;SDS011;10097;50.862;4.696;2023-05-29T06:20:00;13.70;;;3.13;;
19869;SDS011;10097;50.862;4.696;2023-05-29T06:22:25;17.87;;;3.40;;
19869;SDS011;10097;50.862;4.696;2023-05-29T06:24:51;16.00;;;2.90;;
19869;SDS011;10097;50.862;4.696;2023-05-29T06:27:17;14.60;;;3.10;;
19869;SDS011;10097;50.862;4.696;2023-05-29T06:29:43;20.10;;;3.30;;
19869;SDS011;10097;50.862;4.696;2023-05-29T06:32:09;16.23;;;2.83;;
19869;SDS011;10097;50.862;4.696;2023-05-29T06:34:35;11.83;;;2.70;;
19869;SDS011;10097;50.862;4.696;2023-05-29T06:37:01;22.30;;;3.83;;
19869;SDS011;10097;50.862;4.696;2023-05-29T06:39:26;15.70;;;2.97;;
19869;SDS011;10097;50.862;4.696;2023-05-29T06:41:52;10.83;;;2.80;;
19869;SDS011;10097;50.862;4.696;2023-05-29T06:44:17;18.57;;;3.53;;
19869;SDS011;10097;50.862;4.696;2023-05-29T06:46:43;19.13;;;3.10;;
19869;SDS011;10097;50.862;4.696;2023-05-29T06:49:09;17.03;;;3.30;;
19869;SDS011;10097;50.862;4.696;2023-05-29T06:51:34;13.10;;;3.00;;
19869;SDS011;10097;50.862;4.696;2023-05-29T06:54:00;19.33;;;3.83;;
19869;SDS011;10097;50.862;4.696;2023-05-29T06:56:26;13.87;;;3.10;;
19869;SDS011;10097;50.862;4.696;2023-05-29T06:58:52;15.53;;;3.10;;
19869;SDS011;10097;50.862;4.696;2023-05-29T07:01:18;18.60;;;3.47;;
19869;SDS011;10097;50.862;4.696;2023-05-29T07:03:44;11.20;;;2.40;;
19869;SDS011;10097;50.862;4.696;2023-05-29T07:06:11;14.60;;;2.93;;
19869;SDS011;10097;50.862;4.696;2023-05-29T07:08:36;10.70;;;2.40;;
19869;SDS011;10097;50.862;4.696;2023-05-29T07:11:02;14.17;;;3.43;;
19869;SDS011;10097;50.862;4.696;2023-05-29T07:13:28;15.57;;;2.80;;
19869;SDS011;10097;50.862;4.696;2023-05-29T07:15:53;18.43;;;3.17;;
19869;SDS011;10097;50.862;4.696;2023-05-29T07:18:19;21.40;;;4.03;;
19869;SDS011;10097;50.862;4.696;2023-05-29T07:20:44;15.27;;;3.33;;
19869;SDS011;10097;50.862;4.696;2023-05-29T07:23:10;16.67;;;3.00;;
19869;SDS011;10097;50.862;4.696;2023-05-29T07:25:36;17.33;;;3.93;;
19869;SDS011;10097;50.862;4.696;2023-05-29T07:28:01;17.50;;;3.53;;
19869;SDS011;10097;50.862;4.696;2023-05-29T07:30:27;20.60;;;3.30;;
19869;SDS011;10097;50.862;4.696;2023-05-29T07:32:53;16.37;;;3.40;;
19869;SDS011;10097;50.862;4.696;2023-05-29T07:35:18;11.13;;;2.70;;
19869;SDS011;10097;50.862;4.696;2023-05-29T07:37:44;18.90;;;3.00;;
19869;SDS011;10097;50.862;4.696;2023-05-29T07:40:10;14.13;;;2.73;;
19869;SDS011;10097;50.862;4.696;2023-05-29T07:42:35;12.97;;;3.23;;
19869;SDS011;10097;50.862;4.696;2023-05-29T07:45:01;18.77;;;3.20;;
19869;SDS011;10097;50.862;4.696;2023-05-29T07:47:27;16.80;;;2.90;;
19869;SDS011;10097;50.862;4.696;2023-05-29T07:49:52;18.40;;;2.87;;
19869;SDS011;10097;50.862;4.696;2023-05-29T07:52:18;18.17;;;3.33;;
19869;SDS011;10097;50.862;4.696;2023-05-29T07:54:44;15.23;;;3.08;;
19869;SDS011;10097;50.862;4.696;2023-05-29T07:57:09;15.93;;;3.22;;
19869;SDS011;10097;50.862;4.696;2023-05-29T07:59:41;10.52;;;2.22;;
19869;SDS011;10097;50.862;4.696;2023-05-29T08:02:08;14.07;;;3.15;;
19869;SDS011;10097;50.862;4.696;2023-05-29T08:04:33;12.55;;;2.70;;
19869;SDS011;10097;50.862;4.696;2023-05-29T08:07:00;20.08;;;2.95;;
19869;SDS011;10097;50.862;4.696;2023-05-29T08:09:28;17.17;;;3.00;;
19869;SDS011;10097;50.862;4.696;2023-05-29T08:11:54;15.30;;;2.97;;
19869;SDS011;10097;50.862;4.696;2023-05-29T08:14:20;14.73;;;3.10;;
19869;SDS011;10097;50.862;4.696;2023-05-29T08:16:46;14.25;;;2.75;;
19869;SDS011;10097;50.862;4.696;2023-05-29T08:19:11;14.77;;;2.83;;
19869;SDS011;10097;50.862;4.696;2023-05-29T08:21:37;17.38;;;2.95;;
19869;SDS011;10097;50.862;4.696;2023-05-29T08:24:03;13.52;;;2.70;;
19869;SDS011;10097;50.862;4.696;2023-05-29T08:26:32;17.85;;;2.75;;
19869;SDS011;10097;50.862;4.696;2023-05-29T08:28:58;16.42;;;3.08;;
19869;SDS011;10097;50.862;4.696;2023-05-29T08:31:24;14.65;;;2.83;;
19869;SDS011;10097;50.862;4.696;2023-05-29T08:33:50;16.35;;;3.13;;
19869;SDS011;10097;50.862;4.696;2023-05-29T08:36:16;16.33;;;3.05;;
19869;SDS011;10097;50.862;4.696;2023-05-29T08:38:42;14.27;;;3.20;;
19869;SDS011;10097;50.862;4.696;2023-05-29T08:41:08;13.98;;;3.17;;
19869;SDS011;10097;50.862;4.696;2023-05-29T08:43:41;15.15;;;3.78;;
19869;SDS011;10097;50.862;4.696;2023-05-29T08:46:08;11.38;;;2.70;;
19869;SDS011;10097;50.862;4.696;2023-05-29T08:48:34;13.93;;;2.85;;
19869;SDS011;10097;50.862;4.696;2023-05-29T08:51:05;13.35;;;2.85;;
19869;SDS011;10097;50.862;4.696;2023-05-29T08:53:33;16.08;;;2.78;;
19869;SDS011;10097;50.862;4.696;2023-05-29T08:56:00;19.10;;;3.00;;
19869;SDS011;10097;50.862;4.696;2023-05-29T08:58:27;13.00;;;3.28;;
19869;SDS011;10097;50.862;4.696;2023-05-29T09:00:53;12.55;;;2.80;;
19869;SDS011;10097;50.862;4.696;2023-05-29T09:03:20;15.05;;;2.95;;
19869;SDS011;10097;50.862;4.696;2023-05-29T09:05:47;18.80;;;2.97;;
19869;SDS011;10097;50.862;4.696;2023-05-29T09:08:13;13.38;;;3.15;;
19869;SDS011;10097;50.862;4.696;2023-05-29T09:10:43;16.20;;;3.25;;
19869;SDS011;10097;50.862;4.696;2023-05-29T09:13:11;18.33;;;3.35;;
19869;SDS011;10097;50.862;4.696;2023-05-29T09:15:38;14.70;;;3.08;;
19869;SDS011;10097;50.862;4.696;2023-05-29T09:18:08;19.75;;;3.60;;
19869;SDS011;10097;50.862;4.696;2023-05-29T09:20:33;14.30;;;2.83;;
19869;SDS011;10097;50.862;4.696;2023-05-29T09:25:29;14.48;;;2.80;;
19869;SDS011;10097;50.862;4.696;2023-05-29T09:27:58;12.93;;;3.10;;
19869;SDS011;10097;50.862;4.696;2023-05-29T09:30:31;29.63;;;3.53;;
19869;SDS011;10097;50.862;4.696;2023-05-29T09:33:08;16.98;;;3.15;;
19869;SDS011;10097;50.862;4.696;2023-05-29T09:35:38;17.13;;;3.85;;
19869;SDS011;10097;50.862;4.696;2023-05-29T09:38:05;14.18;;;3.67;;
19869;SDS011;10097;50.862;4.696;2023-05-29T09:40:33;18.42;;;3.53;;
19869;SDS011;10097;50.862;4.696;2023-05-29T09:43:04;12.77;;;2.63;;
19869;SDS011;10097;50.862;4.696;2023-05-29T09:45:50;15.25;;;2.90;;
19869;SDS011;10097;50.862;4.696;2023-05-29T09:50:43;14.90;;;3.25;;
19869;SDS011;10097;50.862;4.696;2023-05-29T09:53:19;17.13;;;3.75;;
19869;SDS011;10097;50.862;4.696;2023-05-29T09:55:52;21.00;;;2.92;;
19869;SDS011;10097;50.862;4.696;2023-05-29T09:58:19;16.50;;;3.88;;
19869;SDS011;10097;50.862;4.696;2023-05-29T10:00:46;13.75;;;3.00;;
19869;SDS011;10097;50.862;4.696;2023-05-29T10:03:13;16.05;;;3.17;;
19869;SDS011;10097;50.862;4.696;2023-05-29T10:05:40;12.23;;;3.80;;
19869;SDS011;10097;50.862;4.696;2023-05-29T10:08:14;12.32;;;2.65;;
19869;SDS011;10097;50.862;4.696;2023-05-29T10:10:43;17.85;;;3.60;;
19869;SDS011;10097;50.862;4.696;2023-05-29T10:13:13;13.88;;;2.72;;
19869;SDS011;10097;50.862;4.696;2023-05-29T10:15:44;14.88;;;2.63;;
19869;SDS011;10097;50.862;4.696;2023-05-29T10:20:51;19.10;;;3.22;;
19869;SDS011;10097;50.862;4.696;2023-05-29T10:23:21;20.55;;;3.55;;
19869;SDS011;10097;50.862;4.696;2023-05-29T10:25:52;16.63;;;2.70;;
19869;SDS011;10097;50.862;4.696;2023-05-29T10:28:22;25.17;;;3.70;;
19869;SDS011;10097;50.862;4.696;2023-05-29T10:36:53;17.25;;;3.15;;
19869;SDS011;10097;50.862;4.696;2023-05-29T10:39:29;18.17;;;3.33;;
19869;SDS011;10097;50.862;4.696;2023-05-29T10:41:54;13.65;;;2.97;;
19869;SDS011;10097;50.862;4.696;2023-05-29T10:47:04;18.25;;;3.75;;
19869;SDS011;10097;50.862;4.696;2023-05-29T10:49:30;20.17;;;3.20;;
19869;SDS011;10097;50.862;4.696;2023-05-29T10:51:57;11.90;;;2.75;;
19869;SDS011;10097;50.862;4.696;2023-05-29T10:54:26;11.80;;;2.80;;
19869;SDS011;10097;50.862;4.696;2023-05-29T10:56:52;14.90;;;3.15;;
19869;SDS011;10097;50.862;4.696;2023-05-29T10:59:22;15.20;;;3.83;;
19869;SDS011;10097;50.862;4.696;2023-05-29T11:01:52;14.68;;;2.50;;
19869;SDS011;10097;50.862;4.696;2023-05-29T11:06:51;15.15;;;3.08;;
19869;SDS011;10097;50.862;4.696;2023-05-29T11:09:33;17.73;;;2.95;;
19869;SDS011;10097;50.862;4.696;2023-05-29T11:12:12;13.48;;;2.95;;
19869;SDS011;10097;50.862;4.696;2023-05-29T11:20:06;11.48;;;2.70;;
19869;SDS011;10097;50.862;4.696;2023-05-29T11:25:14;13.93;;;2.92;;
19869;SDS011;10097;50.862;4.696;2023-05-29T11:27:40;14.18;;;3.03;;
19869;SDS011;10097;50.862;4.696;2023-05-29T11:30:09;9.52;;;2.33;;
19869;SDS011;10097;50.862;4.696;2023-05-29T11:32:36;14.75;;;3.50;;
19869;SDS011;10097;50.862;4.696;2023-05-29T11:35:06;12.80;;;2.95;;
19869;SDS011;10097;50.862;4.696;2023-05-29T11:37:49;16.85;;;3.08;;
19869;SDS011;10097;50.862;4.696;2023-05-29T11:40:15;10.50;;;2.42;;
19869;SDS011;10097;50.862;4.696;2023-05-29T11:42:45;11.32;;;2.45;;
19869;SDS011;10097;50.862;4.696;2023-05-29T11:45:17;17.17;;;3.75;;
19869;SDS011;10097;50.862;4.696;2023-05-29T11:47:55;12.80;;;3.03;;
19869;SDS011;10097;50.862;4.696;2023-05-29T11:50:25;14.07;;;2.78;;
19869;SDS011;10097;50.862;4.696;2023-05-29T11:52:58;15.10;;;3.15;;
19869;SDS011;10097;50.862;4.696;2023-05-29T11:55:25;10.73;;;2.60;;
19869;SDS011;10097;50.862;4.696;2023-05-29T11:57:59;8.60;;;2.85;;
19869;SDS011;10097;50.862;4.696;2023-05-29T12:00:26;14.95;;;3.83;;
19869;SDS011;10097;50.862;4.696;2023-05-29T12:02:56;14.02;;;3.17;;
19869;SDS011;10097;50.862;4.696;2023-05-29T12:05:23;14.95;;;3.40;;
19869;SDS011;10097;50.862;4.696;2023-05-29T12:07:55;14.32;;;3.08;;
19869;SDS011;10097;50.862;4.696;2023-05-29T12:10:21;11.95;;;2.40;;
19869;SDS011;10097;50.862;4.696;2023-05-29T12:12:49;15.85;;;3.00;;
19869;SDS011;10097;50.862;4.696;2023-05-29T12:15:16;18.13;;;3.40;;
19869;SDS011;10097;50.862;4.696;2023-05-29T12:17:43;14.00;;;3.60;;
19869;SDS011;10097;50.862;4.696;2023-05-29T12:20:10;12.77;;;2.75;;
19869;SDS011;10097;50.862;4.696;2023-05-29T12:22:37;10.82;;;2.90;;
19869;SDS011;10097;50.862;4.696;2023-05-29T12:27:39;24.02;;;3.05;;
19869;SDS011;10097;50.862;4.696;2023-05-29T12:30:09;13.25;;;2.70;;
19869;SDS011;10097;50.862;4.696;2023-05-29T12:32:38;13.65;;;3.55;;
19869;SDS011;10097;50.862;4.696;2023-05-29T12:35:12;9.70;;;2.50;;
19869;SDS011;10097;50.862;4.696;2023-05-29T12:37:48;11.48;;;2.65;;
19869;SDS011;10097;50.862;4.696;2023-05-29T12:40:24;12.52;;;2.58;;
19869;SDS011;10097;50.862;4.696;2023-05-29T12:42:57;11.15;;;2.78;;
19869;SDS011;10097;50.862;4.696;2023-05-29T12:45:26;14.27;;;3.30;;
19869;SDS011;10097;50.862;4.696;2023-05-29T12:50:26;11.93;;;3.20;;
19869;SDS011;10097;50.862;4.696;2023-05-29T12:52:54;11.98;;;2.63;;
19869;SDS011;10097;50.862;4.696;2023-05-29T12:55:20;13.50;;;2.78;;
19869;SDS011;10097;50.862;4.696;2023-05-29T12:57:46;15.32;;;2.88;;
19869;SDS011;10097;50.862;4.696;2023-05-29T13:00:12;15.05;;;3.00;;
19869;SDS011;10097;50.862;4.696;2023-05-29T13:02:39;14.75;;;3.60;;
19869;SDS011;10097;50.862;4.696;2023-05-29T13:05:05;11.00;;;3.00;;
19869;SDS011;10097;50.862;4.696;2023-05-29T13:07:31;12.35;;;2.88;;
19869;SDS011;10097;50.862;4.696;2023-05-29T13:09:58;14.18;;;3.22;;
19869;SDS011;10097;50.862;4.696;2023-05-29T13:12:24;12.98;;;2.80;;
19869;SDS011;10097;50.862;4.696;2023-05-29T13:14:50;12.77;;;2.75;;
19869;SDS011;10097;50.862;4.696;2023-05-29T13:17:16;14.23;;;3.15;;
19869;SDS011;10097;50.862;4.696;2023-05-29T13:19:42;12.95;;;2.88;;
19869;SDS011;10097;50.862;4.696;2023-05-29T13:22:08;12.57;;;2.75;;
19869;SDS011;10097;50.862;4.696;2023-05-29T13:24:34;17.45;;;2.70;;
19869;SDS011;10097;50.862;4.696;2023-05-29T13:26:59;12.20;;;3.22;;
19869;SDS011;10097;50.862;4.696;2023-05-29T13:29:26;10.80;;;2.42;;
19869;SDS011;10097;50.862;4.696;2023-05-29T13:31:51;11.38;;;2.50;;
19869;SDS011;10097;50.862;4.696;2023-05-29T13:34:17;11.93;;;2.72;;
19869;SDS011;10097;50.862;4.696;2023-05-29T13:36:42;9.68;;;2.92;;
19869;SDS011;10097;50.862;4.696;2023-05-29T13:39:10;12.98;;;3.17;;
19869;SDS011;10097;50.862;4.696;2023-05-29T13:41:35;11.35;;;2.58;;
19869;SDS011;10097;50.862;4.696;2023-05-29T13:44:02;10.80;;;2.58;;
19869;SDS011;10097;50.862;4.696;2023-05-29T13:46:27;10.73;;;2.70;;
19869;SDS011;10097;50.862;4.696;2023-05-29T13:48:53;13.20;;;3.05;;
19869;SDS011;10097;50.862;4.696;2023-05-29T13:51:19;13.10;;;3.25;;
19869;SDS011;10097;50.862;4.696;2023-05-29T13:53:44;13.65;;;2.85;;
19869;SDS011;10097;50.862;4.696;2023-05-29T13:56:10;10.40;;;2.38;;
19869;SDS011;10097;50.862;4.696;2023-05-29T13:58:36;15.93;;;2.78;;
19869;SDS011;10097;50.862;4.696;2023-05-29T14:01:02;15.00;;;3.38;;
19869;SDS011;10097;50.862;4.696;2023-05-29T14:03:33;10.07;;;2.55;;
19869;SDS011;10097;50.862;4.696;2023-05-29T14:05:59;11.48;;;2.60;;
19869;SDS011;10097;50.862;4.696;2023-05-29T14:08:25;7.70;;;2.65;;
19869;SDS011;10097;50.862;4.696;2023-05-29T14:10:51;18.13;;;3.25;;
19869;SDS011;10097;50.862;4.696;2023-05-29T14:13:16;12.57;;;2.75;;
19869;SDS011;10097;50.862;4.696;2023-05-29T14:15:42;9.48;;;2.63;;
19869;SDS011;10097;50.862;4.696;2023-05-29T14:18:08;10.20;;;2.63;;
19869;SDS011;10097;50.862;4.696;2023-05-29T14:20:33;13.57;;;2.75;;
19869;SDS011;10097;50.862;4.696;2023-05-29T14:22:59;9.75;;;2.15;;
19869;SDS011;10097;50.862;4.696;2023-05-29T14:25:25;14.48;;;3.13;;
19869;SDS011;10097;50.862;4.696;2023-05-29T14:27:50;16.02;;;3.13;;
19869;SDS011;10097;50.862;4.696;2023-05-29T14:30:16;11.65;;;2.65;;
19869;SDS011;10097;50.862;4.696;2023-05-29T14:32:42;9.52;;;2.50;;
19869;SDS011;10097;50.862;4.696;2023-05-29T14:35:09;10.65;;;2.67;;
19869;SDS011;10097;50.862;4.696;2023-05-29T14:37:34;10.73;;;2.60;;
19869;SDS011;10097;50.862;4.696;2023-05-29T14:40:00;11.88;;;2.53;;
19869;SDS011;10097;50.862;4.696;2023-05-29T14:42:26;12.90;;;2.70;;
19869;SDS011;10097;50.862;4.696;2023-05-29T14:44:52;12.18;;;2.70;;
19869;SDS011;10097;50.862;4.696;2023-05-29T14:47:18;16.63;;;3.05;;
19869;SDS011;10097;50.862;4.696;2023-05-29T14:49:44;12.73;;;2.70;;
19869;SDS011;10097;50.862;4.696;2023-05-29T14:52:09;15.35;;;3.08;;
19869;SDS011;10097;50.862;4.696;2023-05-29T14:54:35;12.13;;;2.45;;
19869;SDS011;10097;50.862;4.696;2023-05-29T14:57:01;9.02;;;2.38;;
19869;SDS011;10097;50.862;4.696;2023-05-29T14:59:26;13.13;;;2.60;;
19869;SDS011;10097;50.862;4.696;2023-05-29T15:01:52;10.10;;;2.65;;
19869;SDS011;10097;50.862;4.696;2023-05-29T15:04:19;11.32;;;3.03;;
19869;SDS011;10097;50.862;4.696;2023-05-29T15:06:44;11.00;;;2.55;;
19869;SDS011;10097;50.862;4.696;2023-05-29T15:09:10;8.82;;;2.10;;
19869;SDS011;10097;50.862;4.696;2023-05-29T15:11:36;10.55;;;2.65;;